Time;durP1;ratioP1;P1;durP2;ratioP2;P2;SDS_P1;SDS_P2;PMS_P1;PMS_P2;Temp;Humidity;BMP_temperature;BMP_pressure;BME280_temperature;BME280_humidity;BME280_pressure;Samples;Min_cycle;Max_cycle;Signal;HPM_P1;HPM_P2
2023/07/22 00:00:45;;;;;;;3.70;2.83;;;16.50;99.90;;;;;;5015408;28;20033;-63
2023/07/22 00:03:31;;;;;;;4.97;3.20;;;16.50;99.90;;;;;;5015630;28;20117;-63
2023/07/22 00:06:17;;;;;;;4.50;3.38;;;16.50;99.90;;;;;;5009016;28;20050;-63
2023/07/22 00:09:03;;;;;;;5.55;3.75;;;16.50;99.90;;;;;;5009765;28;20116;-63
2023/07/22 00:11:50;;;;;;;4.30;3.40;;;16.50;99.90;;;;;;5011167;28;20072;-63
2023/07/22 00:14:40;;;;;;;4.65;3.42;;;16.50;99.90;;;;;;5025787;28;20057;-63
2023/07/22 00:17:26;;;;;;;4.47;3.40;;;16.50;99.90;;;;;;5027972;28;20033;-63
2023/07/22 00:20:11;;;;;;;4.78;3.10;;;16.60;99.90;;;;;;5021888;28;20033;-62
2023/07/22 00:22:57;;;;;;;5.32;4.00;;;16.50;99.90;;;;;;5025644;28;20486;-63
2023/07/22 00:25:43;;;;;;;5.65;3.80;;;16.60;99.90;;;;;;5028817;28;20049;-63
2023/07/22 00:28:29;;;;;;;7.13;3.53;;;16.60;99.90;;;;;;5014409;28;20174;-63
2023/07/22 00:31:15;;;;;;;4.47;3.42;;;16.60;99.90;;;;;;5010533;28;20041;-63
2023/07/22 00:34:01;;;;;;;4.30;3.40;;;16.60;99.90;;;;;;5011803;28;20124;-63
2023/07/22 00:36:47;;;;;;;4.30;3.40;;;16.70;99.90;;;;;;5012631;28;20033;-63
2023/07/22 00:39:33;;;;;;;4.10;3.45;;;16.70;99.90;;;;;;5018579;28;20029;-61
2023/07/22 00:42:20;;;;;;;4.25;3.33;;;16.70;99.90;;;;;;5012013;28;20112;-62
2023/07/22 00:45:07;;;;;;;4.72;3.47;;;16.70;99.90;;;;;;5025471;28;20056;-62
2023/07/22 00:47:53;;;;;;;4.22;3.17;;;16.80;99.90;;;;;;5032190;28;20517;-62
2023/07/22 00:50:39;;;;;;;5.55;3.90;;;16.70;99.90;;;;;;5036715;28;20107;-62
2023/07/22 00:53:25;;;;;;;7.82;3.42;;;16.80;99.90;;;;;;5040169;28;20124;-61
2023/07/22 00:56:11;;;;;;;6.60;3.47;;;16.80;99.90;;;;;;5029866;28;20067;-61
2023/07/22 00:58:57;;;;;;;5.75;3.40;;;16.80;99.90;;;;;;5023408;28;20037;-62
2023/07/22 01:01:43;;;;;;;4.47;3.50;;;16.80;99.90;;;;;;5016115;28;20040;-62
2023/07/22 01:04:32;;;;;;;5.72;3.58;;;16.80;99.90;;;;;;5026037;28;20052;-62
2023/07/22 01:07:19;;;;;;;4.70;3.75;;;16.80;99.90;;;;;;5011201;28;20061;-62
2023/07/22 01:10:06;;;;;;;6.93;3.53;;;16.90;99.90;;;;;;5008631;28;20410;-62
2023/07/22 01:12:51;;;;;;;4.70;4.00;;;16.90;99.90;;;;;;5010665;28;20045;-62
2023/07/22 01:15:38;;;;;;;5.82;3.90;;;16.90;99.90;;;;;;5001113;28;20471;-61
2023/07/22 01:18:24;;;;;;;4.55;3.47;;;16.90;99.90;;;;;;5010347;28;20038;-61
2023/07/22 01:21:12;;;;;;;5.60;3.70;;;17.00;99.90;;;;;;5009245;28;20042;-61
2023/07/22 01:23:58;;;;;;;5.22;3.63;;;17.00;99.90;;;;;;5007370;28;20077;-61
2023/07/22 01:26:44;;;;;;;3.70;3.33;;;17.00;99.90;;;;;;4982071;28;20042;-61
2023/07/22 01:29:30;;;;;;;5.25;3.60;;;17.00;99.90;;;;;;4998268;28;20113;-61
2023/07/22 01:32:16;;;;;;;6.18;4.00;;;17.00;99.90;;;;;;5002424;28;20092;-61
2023/07/22 01:35:03;;;;;;;5.00;3.75;;;17.00;99.90;;;;;;5007473;28;20038;-61
2023/07/22 01:37:50;;;;;;;6.50;4.03;;;17.00;99.90;;;;;;5008686;28;20100;-61
2023/07/22 01:40:35;;;;;;;5.18;3.88;;;17.00;99.90;;;;;;5009232;28;20054;-61
2023/07/22 01:43:21;;;;;;;5.05;3.72;;;17.00;99.90;;;;;;5010320;28;20115;-61
2023/07/22 01:46:08;;;;;;;6.28;3.90;;;17.10;99.90;;;;;;5007179;28;20058;-61
2023/07/22 01:48:57;;;;;;;5.28;3.72;;;17.10;99.90;;;;;;5006943;28;20507;-61
2023/07/22 01:51:47;;;;;;;4.55;3.60;;;17.10;99.90;;;;;;4992496;28;20061;-61
2023/07/22 01:54:33;;;;;;;6.70;4.05;;;17.10;99.90;;;;;;4999572;28;20091;-60
2023/07/22 01:57:19;;;;;;;6.53;4.35;;;17.10;99.90;;;;;;5002017;28;20045;-61
2023/07/22 02:00:07;;;;;;;5.82;3.95;;;17.10;99.90;;;;;;5000048;28;20038;-61
2023/07/22 02:02:53;;;;;;;5.10;3.70;;;17.10;99.90;;;;;;4989297;28;20034;-61
2023/07/22 02:05:39;;;;;;;4.43;3.58;;;17.00;99.90;;;;;;5005102;28;20038;-61
2023/07/22 02:08:25;;;;;;;5.10;3.42;;;17.00;99.90;;;;;;5009058;28;20052;-60
2023/07/22 02:11:11;;;;;;;4.13;3.50;;;17.00;99.90;;;;;;5017363;28;20479;-60
2023/07/22 02:13:57;;;;;;;4.63;3.30;;;17.00;99.90;;;;;;5010182;28;20073;-60
2023/07/22 02:16:43;;;;;;;4.88;3.45;;;17.00;99.90;;;;;;5028867;28;20038;-60
2023/07/22 02:19:29;;;;;;;4.88;3.67;;;16.90;99.90;;;;;;5027476;28;20230;-60
2023/07/22 02:22:15;;;;;;;5.40;3.70;;;16.80;99.90;;;;;;5018623;28;20029;-61
2023/07/22 02:25:01;;;;;;;4.78;3.45;;;16.80;99.90;;;;;;5019378;28;20129;-60
2023/07/22 02:27:47;;;;;;;5.63;3.92;;;16.80;99.90;;;;;;5023427;28;20121;-61
2023/07/22 02:30:36;;;;;;;3.90;3.25;;;16.90;99.90;;;;;;5026560;28;20493;-61
2023/07/22 02:33:22;;;;;;;6.72;3.53;;;16.80;99.90;;;;;;5030129;28;20037;-61
2023/07/22 02:36:08;;;;;;;4.28;3.00;;;16.80;99.90;;;;;;5009600;28;20034;-61
2023/07/22 02:38:54;;;;;;;5.50;3.50;;;16.80;99.90;;;;;;5027823;28;20456;-61
2023/07/22 02:41:41;;;;;;;3.78;2.80;;;16.80;99.90;;;;;;5028382;28;20075;-61
2023/07/22 02:44:27;;;;;;;5.10;3.20;;;16.80;99.90;;;;;;5023367;28;20029;-60
2023/07/22 02:47:14;;;;;;;4.07;3.03;;;16.70;99.90;;;;;;5029635;28;20077;-61
2023/07/22 02:50:00;;;;;;;4.88;2.80;;;16.70;99.90;;;;;;5020893;28;20033;-60
2023/07/22 02:52:46;;;;;;;4.10;3.08;;;16.60;99.90;;;;;;5024701;28;20041;-61
2023/07/22 02:55:32;;;;;;;4.43;2.80;;;16.60;99.90;;;;;;5027165;28;20076;-61
2023/07/22 02:58:17;;;;;;;4.65;2.83;;;16.50;99.90;;;;;;5027461;28;20037;-61
2023/07/22 03:01:04;;;;;;;5.18;3.13;;;16.50;99.90;;;;;;5018483;28;20042;-61
2023/07/22 03:03:51;;;;;;;4.13;3.15;;;16.50;99.90;;;;;;5026416;28;20079;-61
2023/07/22 03:06:37;;;;;;;3.67;2.67;;;16.40;99.90;;;;;;5016584;28;20049;-61
2023/07/22 03:09:23;;;;;;;3.85;3.38;;;16.40;99.90;;;;;;5024743;28;20057;-61
2023/07/22 03:12:09;;;;;;;5.43;3.38;;;16.40;99.90;;;;;;5028542;28;20041;-61
2023/07/22 03:14:55;;;;;;;5.70;2.88;;;16.40;99.90;;;;;;5026601;28;20034;-60
2023/07/22 03:17:43;;;;;;;5.20;3.28;;;16.40;99.90;;;;;;5010500;28;20045;-60
2023/07/22 03:20:29;;;;;;;3.45;2.92;;;16.30;99.90;;;;;;5009241;28;20037;-60
2023/07/22 03:23:15;;;;;;;6.32;3.50;;;16.30;99.90;;;;;;5009766;28;20123;-61
2023/07/22 03:26:01;;;;;;;3.72;3.13;;;16.30;99.90;;;;;;5027154;28;20041;-61
2023/07/22 03:28:47;;;;;;;4.95;3.30;;;16.30;99.90;;;;;;5032697;28;20099;-60
2023/07/22 03:31:33;;;;;;;6.47;3.10;;;16.30;99.90;;;;;;5010702;28;20650;-61
2023/07/22 03:34:19;;;;;;;4.90;3.25;;;16.30;99.90;;;;;;5012293;28;20060;-62
2023/07/22 03:37:05;;;;;;;5.40;3.22;;;16.30;99.90;;;;;;5027341;28;20073;-61
2023/07/22 03:39:51;;;;;;;4.10;3.10;;;16.40;99.90;;;;;;5025579;28;20036;-62
2023/07/22 03:42:38;;;;;;;4.75;2.95;;;16.30;99.90;;;;;;5028831;28;20045;-62
2023/07/22 03:45:24;;;;;;;6.00;3.42;;;16.40;99.90;;;;;;5025071;28;20398;-61
2023/07/22 03:48:10;;;;;;;4.30;3.13;;;16.40;99.90;;;;;;5025912;28;20045;-61
2023/07/22 03:50:56;;;;;;;5.35;3.30;;;16.30;99.90;;;;;;5014877;28;20026;-61
2023/07/22 03:53:42;;;;;;;4.93;3.15;;;16.40;99.90;;;;;;5026546;28;20037;-61
2023/07/22 03:56:28;;;;;;;6.05;3.85;;;16.40;99.90;;;;;;5011333;28;20065;-61
2023/07/22 03:59:13;;;;;;;6.22;3.20;;;16.40;99.90;;;;;;5015946;28;20026;-61
2023/07/22 04:01:59;;;;;;;3.88;3.22;;;16.40;99.90;;;;;;5025904;28;20041;-61
2023/07/22 04:04:45;;;;;;;4.93;3.38;;;16.40;99.90;;;;;;5026292;28;20041;-61
2023/07/22 04:07:31;;;;;;;4.00;3.00;;;16.50;99.90;;;;;;5013307;28;20406;-61
2023/07/22 04:10:17;;;;;;;6.38;3.15;;;16.50;99.90;;;;;;5027812;28;20413;-60
2023/07/22 04:13:03;;;;;;;4.53;2.72;;;16.50;99.90;;;;;;5031715;28;20070;-60
2023/07/22 04:15:49;;;;;;;4.30;3.00;;;16.50;99.90;;;;;;5028704;28;20033;-61
2023/07/22 04:18:35;;;;;;;4.53;3.10;;;16.50;99.90;;;;;;5030862;28;20135;-61
2023/07/22 04:21:21;;;;;;;3.70;2.65;;;16.50;99.90;;;;;;5026709;28;20043;-62
2023/07/22 04:24:07;;;;;;;5.07;2.72;;;16.50;99.90;;;;;;5028263;28;20030;-61
2023/07/22 04:26:53;;;;;;;5.68;2.40;;;16.60;99.90;;;;;;5012422;28;20041;-61
2023/07/22 04:29:39;;;;;;;3.30;2.30;;;16.50;99.90;;;;;;5016867;28;20104;-61
2023/07/22 04:32:25;;;;;;;3.35;2.90;;;16.60;99.90;;;;;;5031581;28;20036;-61
2023/07/22 04:35:10;;;;;;;3.85;3.00;;;16.60;99.90;;;;;;5027145;28;20048;-62
2023/07/22 04:37:56;;;;;;;3.75;2.75;;;16.60;99.90;;;;;;5022125;28;20034;-62
2023/07/22 04:40:43;;;;;;;5.15;2.63;;;16.60;99.90;;;;;;5014597;28;20041;-61
2023/07/22 04:43:29;;;;;;;4.55;3.05;;;16.60;99.90;;;;;;5030969;28;20051;-62
2023/07/22 04:46:15;;;;;;;3.88;2.65;;;16.70;99.90;;;;;;5013484;28;20061;-62
2023/07/22 04:49:02;;;;;;;3.42;2.45;;;16.70;99.90;;;;;;5013692;28;20025;-62
2023/07/22 04:51:48;;;;;;;3.33;2.50;;;16.70;99.90;;;;;;5012823;28;20030;-62
2023/07/22 04:54:34;;;;;;;4.80;3.00;;;16.80;99.90;;;;;;5016232;28;20109;-63
2023/07/22 04:57:21;;;;;;;5.47;3.05;;;16.80;99.90;;;;;;5030481;28;20068;-62
2023/07/22 05:00:16;;;;;;;4.90;2.90;;;16.80;99.90;;;;;;5030484;28;20402;-62
2023/07/22 05:48:01;;;;;;;8.02;4.18;;;17.50;99.90;;;;;;5040855;28;20037;-67
2023/07/22 05:50:47;;;;;;;7.97;5.20;;;17.60;99.90;;;;;;5025058;28;20101;-67
2023/07/22 05:53:34;;;;;;;8.75;4.47;;;17.70;99.90;;;;;;5042040;28;20043;-59
2023/07/22 05:56:19;;;;;;;6.03;3.72;;;17.70;99.90;;;;;;5030939;28;20060;-58
2023/07/22 05:59:05;;;;;;;6.28;4.18;;;17.80;99.90;;;;;;5021494;28;20052;-59
2023/07/22 06:01:51;;;;;;;7.05;4.38;;;17.80;99.90;;;;;;5012551;28;20056;-60
2023/07/22 06:04:38;;;;;;;6.45;4.18;;;17.90;99.90;;;;;;5023323;28;20124;-59
2023/07/22 06:07:25;;;;;;;7.65;4.40;;;17.90;99.90;;;;;;5040224;28;20136;-59
2023/07/22 06:10:11;;;;;;;9.25;4.45;;;18.00;99.90;;;;;;5017379;28;20042;-59
2023/07/22 06:12:57;;;;;;;7.63;4.15;;;18.00;99.90;;;;;;5030307;28;20128;-59
2023/07/22 06:15:43;;;;;;;6.38;3.92;;;18.10;99.90;;;;;;5024969;28;20049;-60
2023/07/22 06:18:29;;;;;;;7.95;4.05;;;18.10;99.90;;;;;;5012632;28;20038;-59
2023/07/22 06:21:15;;;;;;;8.65;4.13;;;18.10;99.90;;;;;;5016915;28;20079;-59
2023/07/22 06:24:01;;;;;;;6.35;4.07;;;18.20;99.90;;;;;;5010055;28;20129;-58
2023/07/22 06:26:46;;;;;;;6.20;4.10;;;18.20;99.90;;;;;;5026877;28;20049;-59
2023/07/22 06:29:32;;;;;;;8.98;4.35;;;18.20;99.90;;;;;;5024311;28;20034;-61
2023/07/22 06:32:18;;;;;;;7.07;4.45;;;18.30;99.90;;;;;;5009404;28;20085;-62
2023/07/22 06:35:05;;;;;;;7.07;3.35;;;18.30;99.90;;;;;;5018545;28;20064;-61
2023/07/22 06:37:51;;;;;;;10.50;4.35;;;18.30;99.90;;;;;;5029289;28;20045;-61
2023/07/22 06:40:37;;;;;;;6.03;3.67;;;18.30;99.90;;;;;;5018064;28;20129;-60
2023/07/22 06:43:23;;;;;;;5.68;3.67;;;18.40;99.90;;;;;;5023205;28;20052;-60
2023/07/22 06:46:09;;;;;;;5.35;3.80;;;18.40;99.90;;;;;;5015366;28;20103;-60
2023/07/22 06:48:55;;;;;;;6.25;3.33;;;18.40;99.90;;;;;;5027060;28;20561;-60
2023/07/22 06:51:41;;;;;;;5.93;3.60;;;18.50;99.90;;;;;;5022563;28;20034;-60
2023/07/22 06:54:27;;;;;;;6.00;3.35;;;18.50;99.80;;;;;;5022956;28;20109;-60
2023/07/22 06:57:13;;;;;;;8.43;3.90;;;18.60;99.50;;;;;;5018582;28;20514;-59
2023/07/22 06:59:59;;;;;;;9.40;3.72;;;18.60;99.30;;;;;;5014850;28;20121;-60
2023/07/22 07:02:45;;;;;;;8.38;3.67;;;18.70;99.20;;;;;;5015630;28;20557;-60
2023/07/22 07:05:31;;;;;;;5.10;2.90;;;18.70;99.10;;;;;;5019715;28;20064;-59
2023/07/22 07:08:17;;;;;;;4.97;2.85;;;18.70;98.80;;;;;;5021204;28;20111;-59
2023/07/22 07:11:03;;;;;;;5.80;3.10;;;18.70;98.70;;;;;;5025781;28;20049;-60
2023/07/22 07:13:49;;;;;;;5.68;2.95;;;18.80;98.50;;;;;;5027288;28;20498;-59
2023/07/22 07:16:35;;;;;;;6.95;3.47;;;18.80;98.40;;;;;;5009156;28;20877;-59
2023/07/22 07:19:21;;;;;;;5.70;2.90;;;18.80;98.30;;;;;;5011177;28;20044;-59
2023/07/22 07:22:07;;;;;;;4.50;2.90;;;18.80;97.90;;;;;;5029482;28;20045;-59
2023/07/22 07:24:53;;;;;;;6.10;2.80;;;18.80;97.70;;;;;;5019348;28;20046;-59
2023/07/22 07:27:39;;;;;;;4.30;2.70;;;18.90;97.80;;;;;;5016232;28;20083;-59
2023/07/22 07:30:25;;;;;;;5.75;2.97;;;19.00;97.70;;;;;;5021591;28;22824;-59
2023/07/22 07:33:11;;;;;;;8.35;3.72;;;19.10;97.80;;;;;;5031085;28;20033;-60
2023/07/22 07:35:57;;;;;;;5.03;2.78;;;19.20;97.50;;;;;;5017477;28;20106;-60
2023/07/22 07:38:43;;;;;;;6.47;3.17;;;19.30;97.70;;;;;;5019852;28;20053;-61
2023/07/22 07:41:29;;;;;;;7.80;3.03;;;19.40;97.20;;;;;;5012628;28;20379;-62
2023/07/22 07:44:15;;;;;;;4.80;2.67;;;19.40;96.70;;;;;;5010821;28;20483;-61
2023/07/22 07:47:01;;;;;;;9.65;3.33;;;19.50;96.40;;;;;;5024430;28;20509;-61
2023/07/22 07:49:47;;;;;;;10.52;2.75;;;19.60;96.00;;;;;;5014028;28;20037;-61
2023/07/22 07:52:32;;;;;;;9.15;3.35;;;19.60;96.00;;;;;;5031185;28;20063;-61
2023/07/22 07:55:18;;;;;;;7.15;3.10;;;19.70;95.70;;;;;;5028147;28;20044;-62
2023/07/22 07:58:04;;;;;;;5.32;2.90;;;19.80;95.50;;;;;;5029721;28;20039;-61
2023/07/22 08:00:51;;;;;;;6.03;2.75;;;19.80;95.50;;;;;;5025227;28;20110;-61
2023/07/22 08:03:38;;;;;;;6.20;3.08;;;19.90;95.30;;;;;;5019533;28;20053;-60
2023/07/22 08:06:24;;;;;;;5.30;3.22;;;20.00;95.00;;;;;;5024998;28;20422;-60
2023/07/22 08:09:10;;;;;;;4.35;2.70;;;20.10;94.90;;;;;;5016223;28;20037;-60
2023/07/22 08:11:56;;;;;;;6.03;3.08;;;20.20;94.50;;;;;;5013606;28;20049;-60
2023/07/22 08:14:42;;;;;;;3.97;2.50;;;20.30;94.20;;;;;;5022413;28;20041;-60
2023/07/22 08:17:28;;;;;;;4.28;2.75;;;20.30;94.10;;;;;;5013285;28;20117;-60
2023/07/22 08:20:14;;;;;;;5.30;2.92;;;20.40;93.90;;;;;;5012838;28;20042;-61
2023/07/22 08:23:00;;;;;;;6.38;3.72;;;20.50;93.70;;;;;;5023290;28;20067;-60
2023/07/22 08:25:46;;;;;;;5.18;3.05;;;20.50;93.20;;;;;;5027892;28;20050;-60
2023/07/22 08:28:33;;;;;;;5.00;2.65;;;20.50;93.10;;;;;;5011733;28;20042;-60
2023/07/22 08:31:19;;;;;;;7.40;3.33;;;20.60;92.90;;;;;;5029153;28;20174;-61
2023/07/22 08:34:05;;;;;;;6.38;3.35;;;20.70;92.80;;;;;;5011583;28;20049;-60
2023/07/22 08:36:51;;;;;;;5.50;2.85;;;20.80;92.50;;;;;;5030810;28;20045;-62
2023/07/22 08:39:37;;;;;;;7.70;3.28;;;20.90;92.50;;;;;;5024125;28;20486;-61
2023/07/22 08:42:25;;;;;;;5.85;2.45;;;21.00;92.60;;;;;;5021606;28;20040;-61
2023/07/22 08:45:13;;;;;;;5.28;2.95;;;21.10;92.40;;;;;;5025347;28;20045;-60
2023/07/22 08:48:03;;;;;;;4.85;2.95;;;21.10;91.90;;;;;;5020036;28;20054;-60
2023/07/22 08:50:56;;;;;;;5.07;2.50;;;21.20;91.60;;;;;;5020314;28;20045;-61
2023/07/22 08:53:43;;;;;;;7.28;3.50;;;21.20;91.50;;;;;;5029835;28;20303;-61
2023/07/22 08:56:29;;;;;;;20.75;5.20;;;21.30;91.10;;;;;;5018531;28;20084;-61
2023/07/22 08:59:17;;;;;;;10.27;4.05;;;21.30;91.10;;;;;;5019702;28;20130;-61
2023/07/22 09:02:03;;;;;;;8.30;3.45;;;21.30;91.20;;;;;;5017780;28;20203;-60
2023/07/22 09:04:49;;;;;;;6.30;3.22;;;21.30;90.70;;;;;;5021072;28;20037;-60
2023/07/22 09:07:37;;;;;;;5.78;2.95;;;21.40;90.70;;;;;;5032240;28;20095;-61
2023/07/22 09:10:26;;;;;;;10.25;3.30;;;21.30;90.20;;;;;;5013835;28;20049;-60
2023/07/22 09:13:14;;;;;;;24.02;5.03;;;21.30;90.00;;;;;;5011535;28;20447;-60
2023/07/22 09:16:01;;;;;;;10.98;3.13;;;21.30;90.00;;;;;;5014377;28;20042;-60
2023/07/22 09:18:47;;;;;;;5.75;3.25;;;21.30;89.60;;;;;;5023117;28;20041;-60
2023/07/22 09:21:35;;;;;;;6.45;3.13;;;21.40;89.20;;;;;;5012136;28;20372;-60
2023/07/22 09:24:27;;;;;;;6.07;3.22;;;21.30;89.80;;;;;;5019843;28;20557;-60
2023/07/22 09:27:13;;;;;;;5.60;3.05;;;21.40;89.20;;;;;;5020150;28;20128;-60
2023/07/22 09:29:59;;;;;;;4.40;2.97;;;21.40;89.20;;;;;;5015214;28;20118;-60
2023/07/22 09:32:45;;;;;;;4.05;2.60;;;21.40;88.90;;;;;;5024835;28;20046;-60
2023/07/22 09:35:44;;;;;;;8.07;2.53;;;21.50;88.20;;;;;;5022410;28;20050;-61
2023/07/22 09:38:30;;;;;;;6.30;2.90;;;21.60;88.10;;;;;;5021960;28;20384;-61
2023/07/22 09:41:20;;;;;;;5.00;2.33;;;21.60;87.80;;;;;;5020793;28;20049;-61
2023/07/22 09:44:10;;;;;;;4.60;2.38;;;21.70;87.50;;;;;;5023624;28;20061;-61
2023/07/22 09:46:56;;;;;;;3.22;2.05;;;21.80;87.00;;;;;;5023621;28;20057;-61
2023/07/22 09:49:44;;;;;;;4.15;2.65;;;21.80;86.30;;;;;;5020085;28;20103;-61
2023/07/22 09:52:30;;;;;;;6.78;3.40;;;21.80;86.30;;;;;;5026651;28;20524;-60
2023/07/22 09:55:19;;;;;;;10.75;4.18;;;21.90;85.70;;;;;;5019756;28;20514;-60
2023/07/22 09:58:05;;;;;;;15.05;4.47;;;21.90;85.70;;;;;;5007995;28;20398;-61
2023/07/22 10:00:51;;;;;;;5.10;2.72;;;21.90;85.60;;;;;;5015268;28;20037;-61
2023/07/22 10:03:38;;;;;;;5.97;2.75;;;22.00;85.30;;;;;;5014596;28;20121;-60
2023/07/22 10:06:27;;;;;;;5.03;2.47;;;22.00;85.10;;;;;;5026049;28;20053;-60
2023/07/22 10:09:15;;;;;;;3.72;2.22;;;22.00;85.00;;;;;;5024664;28;20040;-60
2023/07/22 10:12:03;;;;;;;4.35;2.40;;;22.10;84.20;;;;;;5030750;28;20072;-60
2023/07/22 10:14:50;;;;;;;5.35;2.30;;;22.00;83.90;;;;;;5016662;28;20222;-61
2023/07/22 10:17:36;;;;;;;8.85;2.65;;;22.00;83.40;;;;;;5022735;28;20136;-60
2023/07/22 10:20:23;;;;;;;6.07;2.25;;;22.10;83.80;;;;;;5020358;28;20033;-60
2023/07/22 10:23:13;;;;;;;5.53;2.70;;;22.20;82.50;;;;;;5030305;28;20387;-61
2023/07/22 10:25:59;;;;;;;4.07;2.30;;;22.20;81.40;;;;;;5011045;28;20098;-60
2023/07/22 10:28:47;;;;;;;3.55;2.10;;;22.20;81.20;;;;;;5015055;28;20482;-60
2023/07/22 10:31:33;;;;;;;4.10;2.10;;;22.20;81.40;;;;;;5025337;28;20060;-60
2023/07/22 10:34:21;;;;;;;6.72;3.05;;;22.30;81.70;;;;;;5019687;28;20042;-60
2023/07/22 10:37:10;;;;;;;4.60;2.72;;;22.30;81.70;;;;;;5026956;28;20053;-60
2023/07/22 10:39:59;;;;;;;4.80;2.15;;;22.40;81.50;;;;;;5024201;28;20497;-61
2023/07/22 10:42:59;;;;;;;13.48;4.93;;;22.40;80.50;;;;;;5024457;28;20038;-61
2023/07/22 10:45:55;;;;;;;11.85;3.92;;;22.30;80.50;;;;;;5017770;28;20363;-60
2023/07/22 10:48:42;;;;;;;3.75;2.50;;;22.30;80.30;;;;;;5029463;28;20060;-61
2023/07/22 10:51:36;;;;;;;9.38;3.20;;;22.30;80.00;;;;;;5020403;28;20119;-60
2023/07/22 10:54:36;;;;;;;6.28;2.97;;;22.30;80.30;;;;;;5025059;28;20796;-61
2023/07/22 10:57:24;;;;;;;9.73;3.30;;;22.30;79.90;;;;;;5029875;28;20080;-61
2023/07/22 11:00:21;;;;;;;3.92;2.45;;;22.30;79.60;;;;;;5013639;28;20041;-60
2023/07/22 11:03:15;;;;;;;3.78;2.40;;;22.40;79.80;;;;;;5028762;28;20037;-58
2023/07/22 11:06:01;;;;;;;5.28;2.40;;;22.40;78.70;;;;;;5016253;28;20053;-61
2023/07/22 11:08:47;;;;;;;4.65;2.70;;;22.50;78.50;;;;;;5027057;28;20095;-61
2023/07/22 11:11:41;;;;;;;3.88;2.60;;;22.50;78.50;;;;;;5025831;28;20510;-62
2023/07/22 11:14:28;;;;;;;3.70;2.47;;;22.50;78.60;;;;;;5026756;28;20045;-66
2023/07/22 11:17:17;;;;;;;3.83;2.28;;;22.60;78.60;;;;;;5025722;28;20141;-67
2023/07/22 11:20:04;;;;;;;5.07;2.78;;;22.70;78.20;;;;;;5017304;28;20103;-67
2023/07/22 11:22:50;;;;;;;4.55;2.88;;;22.80;78.00;;;;;;5022727;28;20042;-67
2023/07/22 11:25:36;;;;;;;5.75;2.70;;;22.90;77.70;;;;;;5022238;28;20077;-66
2023/07/22 11:28:22;;;;;;;5.97;3.47;;;22.90;77.10;;;;;;5027864;28;20103;-65
2023/07/22 11:31:09;;;;;;;5.78;3.53;;;23.00;77.10;;;;;;5024762;28;20051;-65
2023/07/22 11:33:55;;;;;;;5.03;3.90;;;23.00;76.70;;;;;;5028289;28;20152;-66
2023/07/22 11:36:42;;;;;;;6.03;3.15;;;23.00;76.40;;;;;;5029389;28;20046;-66
2023/07/22 11:39:31;;;;;;;4.65;3.05;;;23.00;75.90;;;;;;5017743;28;20041;-66
2023/07/22 11:42:17;;;;;;;6.10;3.38;;;23.10;75.90;;;;;;5011791;28;20049;-59
2023/07/22 11:45:05;;;;;;;9.20;3.13;;;23.10;76.10;;;;;;5015124;28;20052;-60
2023/07/22 11:47:51;;;;;;;10.35;3.25;;;23.20;75.80;;;;;;5028275;28;20439;-60
2023/07/22 11:50:38;;;;;;;5.35;2.70;;;23.20;75.90;;;;;;5008914;28;20507;-58
2023/07/22 11:53:27;;;;;;;4.50;2.67;;;23.20;75.20;;;;;;5009912;28;20054;-67
2023/07/22 11:56:18;;;;;;;6.05;2.72;;;23.20;75.00;;;;;;5018363;28;20034;-64
2023/07/22 11:59:04;;;;;;;6.30;3.05;;;23.30;75.50;;;;;;5026172;28;20069;-64
2023/07/22 12:01:52;;;;;;;5.60;3.10;;;23.30;75.10;;;;;;5028648;28;20144;-67
2023/07/22 12:04:39;;;;;;;5.75;2.97;;;23.40;75.10;;;;;;5021084;28;20047;-68
2023/07/22 12:07:27;;;;;;;5.95;3.00;;;23.40;75.00;;;;;;5009164;28;20056;-67
2023/07/22 12:10:15;;;;;;;16.27;4.95;;;23.50;75.30;;;;;;5019202;28;20033;-67
2023/07/22 12:13:02;;;;;;;13.52;3.85;;;23.60;74.90;;;;;;5029223;28;20141;-66
2023/07/22 12:16:01;;;;;;;20.05;5.50;;;23.70;74.40;;;;;;5011842;28;20415;-68
2023/07/22 12:18:47;;;;;;;9.20;3.25;;;23.80;73.70;;;;;;5029770;28;20499;-67
2023/07/22 12:21:34;;;;;;;6.55;2.85;;;23.80;72.60;;;;;;5022099;28;20090;-67
2023/07/22 12:24:20;;;;;;;8.82;3.00;;;23.80;72.60;;;;;;5029727;28;20174;-68
2023/07/22 12:27:06;;;;;;;11.05;2.95;;;23.80;72.30;;;;;;5012697;28;20303;-68
2023/07/22 12:29:52;;;;;;;6.95;3.50;;;23.90;72.60;;;;;;5021779;28;20081;-68
2023/07/22 12:32:38;;;;;;;4.82;2.97;;;24.00;72.20;;;;;;5014573;28;20085;-68
2023/07/22 12:35:24;;;;;;;4.13;2.55;;;24.00;72.40;;;;;;5031761;28;20041;-66
2023/07/22 12:38:10;;;;;;;4.30;2.97;;;24.10;71.80;;;;;;5032163;28;20182;-67
2023/07/22 12:40:56;;;;;;;7.07;3.72;;;24.10;71.80;;;;;;5020819;28;20057;-68
2023/07/22 12:43:42;;;;;;;4.78;2.95;;;24.20;71.70;;;;;;5020407;28;20042;-67
2023/07/22 12:46:28;;;;;;;6.55;2.70;;;24.30;70.50;;;;;;5016564;28;20120;-68
2023/07/22 12:49:14;;;;;;;12.02;3.65;;;24.50;70.70;;;;;;5027861;28;20069;-67
2023/07/22 12:52:04;;;;;;;3.83;2.28;;;24.50;70.20;;;;;;5018008;28;20108;-67
2023/07/22 12:54:50;;;;;;;3.30;2.33;;;24.60;69.90;;;;;;5015712;28;20037;-67
2023/07/22 12:57:36;;;;;;;5.30;2.95;;;24.60;69.80;;;;;;5023360;28;20041;-68
2023/07/22 13:00:22;;;;;;;3.70;2.20;;;24.60;69.70;;;;;;5011854;28;20120;-68
2023/07/22 13:03:08;;;;;;;5.22;2.88;;;24.70;69.90;;;;;;5021960;28;20045;-67
2023/07/22 13:05:54;;;;;;;8.13;3.50;;;24.90;69.90;;;;;;5015258;28;20144;-60
2023/07/22 13:08:40;;;;;;;6.97;3.25;;;25.00;69.20;;;;;;5028287;28;20042;-60
2023/07/22 13:11:26;;;;;;;5.18;3.08;;;25.10;68.60;;;;;;5028765;28;20037;-60
2023/07/22 13:14:12;;;;;;;3.90;2.75;;;25.10;68.10;;;;;;5021092;28;20041;-60
2023/07/22 13:16:57;;;;;;;5.30;2.95;;;25.20;67.50;;;;;;5011479;28;20121;-60
2023/07/22 13:19:43;;;;;;;5.10;3.17;;;25.10;67.40;;;;;;5011091;28;20088;-68
2023/07/22 13:22:29;;;;;;;7.65;3.17;;;25.00;67.60;;;;;;5010965;28;20670;-68
2023/07/22 13:25:15;;;;;;;9.68;3.58;;;24.90;67.30;;;;;;5013843;28;20056;-68
2023/07/22 13:28:01;;;;;;;5.38;3.17;;;25.00;67.40;;;;;;5011261;28;20046;-68
2023/07/22 13:30:47;;;;;;;6.00;2.95;;;25.00;67.80;;;;;;5021317;28;20088;-68
2023/07/22 13:33:33;;;;;;;8.23;3.00;;;25.00;67.50;;;;;;5029137;28;20042;-68
2023/07/22 13:36:19;;;;;;;6.40;2.33;;;25.00;67.20;;;;;;5030204;28;20128;-68
2023/07/22 13:39:05;;;;;;;4.05;2.60;;;25.00;67.00;;;;;;5021857;28;20049;-68
2023/07/22 13:41:51;;;;;;;8.73;2.92;;;25.00;67.30;;;;;;5016268;28;20041;-67
2023/07/22 13:44:37;;;;;;;5.35;3.08;;;25.00;67.40;;;;;;5017155;28;20052;-67
2023/07/22 13:47:23;;;;;;;5.65;3.50;;;25.10;67.80;;;;;;5022177;28;20069;-67
2023/07/22 13:50:09;;;;;;;4.70;3.25;;;25.20;67.80;;;;;;5029570;28;20030;-67
2023/07/22 13:52:55;;;;;;;4.68;2.72;;;25.40;66.80;;;;;;5014782;28;20534;-68
2023/07/22 13:55:41;;;;;;;6.20;3.50;;;25.50;66.30;;;;;;5021236;28;20035;-67
2023/07/22 13:58:28;;;;;;;10.35;4.45;;;25.60;66.30;;;;;;5018503;28;20501;-67
2023/07/22 14:01:13;;;;;;;7.90;3.28;;;25.60;66.50;;;;;;5011307;28;20125;-68
2023/07/22 14:03:59;;;;;;;7.45;3.40;;;25.70;66.00;;;;;;5012118;28;20076;-68
2023/07/22 14:06:45;;;;;;;7.38;3.20;;;25.80;65.80;;;;;;5026851;28;20057;-68
2023/07/22 14:09:31;;;;;;;5.03;3.28;;;25.80;65.60;;;;;;5022495;28;20474;-67
2023/07/22 14:12:17;;;;;;;4.68;2.92;;;25.80;65.40;;;;;;5010241;28;20049;-69
2023/07/22 14:15:04;;;;;;;4.70;2.92;;;25.70;65.30;;;;;;5010524;28;20172;-67
2023/07/22 14:17:50;;;;;;;5.35;3.15;;;25.70;65.80;;;;;;5010939;28;20046;-68
2023/07/22 14:20:36;;;;;;;4.40;2.97;;;25.50;65.60;;;;;;5011652;28;20045;-69
2023/07/22 14:23:22;;;;;;;5.25;3.15;;;25.50;65.70;;;;;;5017251;28;20577;-66
2023/07/22 14:26:08;;;;;;;7.93;3.10;;;25.40;65.50;;;;;;5028469;28;20122;-67
2023/07/22 14:28:53;;;;;;;3.75;2.17;;;25.40;65.00;;;;;;5027791;28;20457;-68
2023/07/22 14:31:41;;;;;;;7.97;3.17;;;25.30;64.60;;;;;;5010900;28;20099;-67
2023/07/22 14:34:27;;;;;;;7.70;3.60;;;25.30;64.70;;;;;;5012078;28;20046;-66
2023/07/22 14:37:14;;;;;;;5.88;3.00;;;25.30;65.00;;;;;;5013124;28;20388;-75
2023/07/22 14:40:00;;;;;;;3.50;2.55;;;25.30;65.50;;;;;;5016827;28;20045;-66
2023/07/22 14:42:46;;;;;;;6.65;3.20;;;25.30;65.60;;;;;;5009296;28;20041;-68
2023/07/22 14:45:32;;;;;;;4.30;2.58;;;25.30;65.80;;;;;;5008075;28;20034;-68
2023/07/22 14:48:18;;;;;;;4.80;2.78;;;25.30;65.30;;;;;;5021765;28;20138;-71
2023/07/22 14:51:03;;;;;;;6.75;2.92;;;25.30;65.20;;;;;;5017118;28;20080;-69
2023/07/22 14:53:49;;;;;;;5.32;3.58;;;25.20;65.80;;;;;;5030281;28;20088;-70
2023/07/22 14:56:35;;;;;;;4.93;2.83;;;25.10;65.90;;;;;;5011953;28;20187;-68
2023/07/22 14:59:21;;;;;;;6.20;3.17;;;25.10;65.90;;;;;;5016057;28;20136;-69
2023/07/22 15:02:07;;;;;;;4.78;3.05;;;25.10;65.10;;;;;;5023538;28;20038;-67
2023/07/22 15:04:53;;;;;;;5.10;2.75;;;25.00;65.00;;;;;;5025177;28;20053;-68
2023/07/22 15:07:39;;;;;;;5.53;3.25;;;24.90;64.50;;;;;;5021841;28;20422;-70
2023/07/22 15:10:25;;;;;;;4.53;2.97;;;24.80;64.70;;;;;;5009805;28;20072;-72